sensor_id;sensor_type;location;lat;lon;timestamp;pressure;altitude;pressure_sealevel;temperature;humidity
52797;BME280;38666;43.348;12.584;2023-02-12T06:54:16;97174.44;;;-0.44;63.85
52797;BME280;38666;43.348;12.584;2023-02-12T06:56:42;97178.94;;;-0.20;64.31
52797;BME280;38666;43.348;12.584;2023-02-12T06:59:12;97170.56;;;0.01;62.74
52797;BME280;38666;43.348;12.584;2023-02-12T07:01:39;97176.19;;;0.19;59.82
52797;BME280;38666;43.348;12.584;2023-02-12T07:04:05;97170.25;;;0.36;59.33
52797;BME280;38666;43.348;12.584;2023-02-12T07:06:33;97169.28;;;0.60;58.22
52797;BME280;38666;43.348;12.584;2023-02-12T07:08:59;97163.31;;;0.77;55.82
52797;BME280;38666;43.348;12.584;2023-02-12T07:11:26;97150.38;;;0.93;55.87
52797;BME280;38666;43.348;12.584;2023-02-12T07:13:52;97157.13;;;1.19;54.63
52797;BME280;38666;43.348;12.584;2023-02-12T07:16:18;97163.53;;;1.46;54.18
52797;BME280;38666;43.348;12.584;2023-02-12T07:18:44;97154.03;;;1.86;53.37
52797;BME280;38666;43.348;12.584;2023-02-12T07:21:11;97156.59;;;2.14;51.54
52797;BME280;38666;43.348;12.584;2023-02-12T07:23:38;97157.75;;;2.53;51.49
52797;BME280;38666;43.348;12.584;2023-02-12T07:26:10;97159.06;;;3.06;49.09
52797;BME280;38666;43.348;12.584;2023-02-12T07:28:37;97160.13;;;2.96;50.04
52797;BME280;38666;43.348;12.584;2023-02-12T07:31:10;97159.75;;;3.29;48.90
52797;BME280;38666;43.348;12.584;2023-02-12T07:33:37;97166.13;;;3.42;48.91
52797;BME280;38666;43.348;12.584;2023-02-12T07:36:05;97161.47;;;4.22;47.51
52797;BME280;38666;43.348;12.584;2023-02-12T07:38:31;97160.97;;;4.38;46.97
52797;BME280;38666;43.348;12.584;2023-02-12T07:41:16;97166.03;;;4.97;45.75
52797;BME280;38666;43.348;12.584;2023-02-12T07:43:44;97175.44;;;5.21;44.77
52797;BME280;38666;43.348;12.584;2023-02-12T07:46:22;97168.50;;;5.62;44.13
52797;BME280;38666;43.348;12.584;2023-02-12T07:48:49;97185.41;;;5.59;43.75
52797;BME280;38666;43.348;12.584;2023-02-12T07:51:17;97189.56;;;5.35;43.92
52797;BME280;38666;43.348;12.584;2023-02-12T07:53:45;97177.41;;;5.63;43.73
52797;BME280;38666;43.348;12.584;2023-02-12T07:56:14;97185.53;;;6.27;42.94
52797;BME280;38666;43.348;12.584;2023-02-12T07:58:41;97179.28;;;7.48;39.74
52797;BME280;38666;43.348;12.584;2023-02-12T08:01:19;97176.59;;;7.35;40.01
52797;BME280;38666;43.348;12.584;2023-02-12T08:03:46;97179.34;;;6.85;40.94
52797;BME280;38666;43.348;12.584;2023-02-12T08:06:18;97177.28;;;7.32;40.56
52797;BME280;38666;43.348;12.584;2023-02-12T08:08:45;97181.03;;;8.39;38.96
52797;BME280;38666;43.348;12.584;2023-02-12T08:11:13;97178.75;;;8.70;38.32
52797;BME280;38666;43.348;12.584;2023-02-12T08:13:39;97171.19;;;9.83;35.40
52797;BME280;38666;43.348;12.584;2023-02-12T08:16:19;97175.97;;;10.30;34.79
52797;BME280;38666;43.348;12.584;2023-02-12T08:18:46;97166.03;;;11.35;32.52
52797;BME280;38666;43.348;12.584;2023-02-12T08:21:14;97175.69;;;11.25;32.63
52797;BME280;38666;43.348;12.584;2023-02-12T08:23:40;97182.56;;;10.92;32.83
52797;BME280;38666;43.348;12.584;2023-02-12T08:28:38;97182.88;;;11.64;31.85
52797;BME280;38666;43.348;12.584;2023-02-12T08:31:07;97178.53;;;11.36;32.45
52797;BME280;38666;43.348;12.584;2023-02-12T08:33:33;97173.97;;;11.44;32.98
52797;BME280;38666;43.348;12.584;2023-02-12T08:36:03;97162.75;;;11.80;32.59
52797;BME280;38666;43.348;12.584;2023-02-12T08:38:31;97159.16;;;13.35;30.04
52797;BME280;38666;43.348;12.584;2023-02-12T08:41:00;97168.50;;;12.36;30.94
52797;BME280;38666;43.348;12.584;2023-02-12T08:43:26;97165.28;;;13.74;29.33
52797;BME280;38666;43.348;12.584;2023-02-12T08:45:52;97160.84;;;14.69;28.12
52797;BME280;38666;43.348;12.584;2023-02-12T08:48:19;97163.25;;;15.00;27.89
52797;BME280;38666;43.348;12.584;2023-02-12T08:50:45;97168.75;;;14.86;27.81
52797;BME280;38666;43.348;12.584;2023-02-12T08:53:11;97168.34;;;14.84;27.80
52797;BME280;38666;43.348;12.584;2023-02-12T08:55:36;97170.28;;;14.76;28.15
52797;BME280;38666;43.348;12.584;2023-02-12T08:58:02;97162.94;;;16.32;26.08
52797;BME280;38666;43.348;12.584;2023-02-12T09:00:28;97158.28;;;17.31;24.48
52797;BME280;38666;43.348;12.584;2023-02-12T09:02:53;97162.72;;;17.64;22.75
52797;BME280;38666;43.348;12.584;2023-02-12T09:05:19;97164.81;;;17.49;23.40
52797;BME280;38666;43.348;12.584;2023-02-12T09:07:45;97173.53;;;16.97;23.20
52797;BME280;38666;43.348;12.584;2023-02-12T09:10:10;97176.72;;;16.92;22.93
52797;BME280;38666;43.348;12.584;2023-02-12T09:12:36;97163.31;;;18.17;21.87
52797;BME280;38666;43.348;12.584;2023-02-12T09:15:01;97171.09;;;17.91;22.00
52797;BME280;38666;43.348;12.584;2023-02-12T09:17:27;97161.59;;;19.10;20.68
52797;BME280;38666;43.348;12.584;2023-02-12T09:19:53;97166.59;;;19.19;20.00
52797;BME280;38666;43.348;12.584;2023-02-12T09:22:18;97158.38;;;19.80;20.21
52797;BME280;38666;43.348;12.584;2023-02-12T09:24:44;97171.00;;;20.79;19.31
52797;BME280;38666;43.348;12.584;2023-02-12T09:27:09;97166.31;;;20.93;19.01
52797;BME280;38666;43.348;12.584;2023-02-12T09:29:35;97174.91;;;17.28;23.17
52797;BME280;38666;43.348;12.584;2023-02-12T09:32:00;97165.84;;;15.95;25.39
52797;BME280;38666;43.348;12.584;2023-02-12T09:34:29;97169.41;;;16.67;23.96
52797;BME280;38666;43.348;12.584;2023-02-12T09:36:55;97175.47;;;16.40;24.50
52797;BME280;38666;43.348;12.584;2023-02-12T09:39:20;97186.84;;;13.76;27.61
52797;BME280;38666;43.348;12.584;2023-02-12T09:44:46;97196.63;;;13.17;28.42
52797;BME280;38666;43.348;12.584;2023-02-12T09:47:45;97198.78;;;12.93;28.62
52797;BME280;38666;43.348;12.584;2023-02-12T09:52:58;97197.34;;;13.06;29.22
52797;BME280;38666;43.348;12.584;2023-02-12T09:55:34;97191.75;;;12.15;31.14
52797;BME280;38666;43.348;12.584;2023-02-12T09:58:01;97204.78;;;12.26;31.68
52797;BME280;38666;43.348;12.584;2023-02-12T10:00:30;97207.22;;;12.35;31.76
52797;BME280;38666;43.348;12.584;2023-02-12T10:03:00;97201.56;;;12.20;32.79
52797;BME280;38666;43.348;12.584;2023-02-12T10:05:54;97195.00;;;13.61;30.76
52797;BME280;38666;43.348;12.584;2023-02-12T10:14:28;97188.28;;;15.90;28.33
52797;BME280;38666;43.348;12.584;2023-02-12T10:25:51;97202.78;;;14.26;30.19
52797;BME280;38666;43.348;12.584;2023-02-12T10:28:23;97200.03;;;14.26;30.00
52797;BME280;38666;43.348;12.584;2023-02-12T10:30:56;97199.00;;;13.71;29.92
52797;BME280;38666;43.348;12.584;2023-02-12T10:33:30;97188.34;;;13.58;30.36
52797;BME280;38666;43.348;12.584;2023-02-12T10:36:03;97180.34;;;14.10;29.41
52797;BME280;38666;43.348;12.584;2023-02-12T10:38:35;97184.06;;;15.09;28.28
52797;BME280;38666;43.348;12.584;2023-02-12T10:41:03;97191.94;;;15.21;27.30
52797;BME280;38666;43.348;12.584;2023-02-12T10:43:29;97190.78;;;15.11;27.24
52797;BME280;38666;43.348;12.584;2023-02-12T10:45:55;97202.41;;;14.46;28.14
52797;BME280;38666;43.348;12.584;2023-02-12T10:48:24;97194.50;;;14.15;28.39
52797;BME280;38666;43.348;12.584;2023-02-12T10:50:58;97190.09;;;13.36;28.90
52797;BME280;38666;43.348;12.584;2023-02-12T10:53:35;97190.78;;;13.22;28.91
52797;BME280;38666;43.348;12.584;2023-02-12T10:58:42;97180.53;;;13.11;29.52
52797;BME280;38666;43.348;12.584;2023-02-12T11:01:38;97182.94;;;13.20;29.48
52797;BME280;38666;43.348;12.584;2023-02-12T11:04:27;97171.34;;;13.45;28.88
52797;BME280;38666;43.348;12.584;2023-02-12T11:07:03;97168.72;;;13.07;28.19
52797;BME280;38666;43.348;12.584;2023-02-12T11:09:39;97174.91;;;12.97;28.51
52797;BME280;38666;43.348;12.584;2023-02-12T11:15:12;97156.41;;;11.76;29.11
52797;BME280;38666;43.348;12.584;2023-02-12T11:17:40;97162.09;;;11.90;29.52
52797;BME280;38666;43.348;12.584;2023-02-12T11:23:01;97168.38;;;12.25;29.15
52797;BME280;38666;43.348;12.584;2023-02-12T11:25:29;97160.94;;;12.26;29.19
52797;BME280;38666;43.348;12.584;2023-02-12T11:30:27;97164.25;;;12.08;29.95
52797;BME280;38666;43.348;12.584;2023-02-12T11:32:53;97156.66;;;11.94;29.16
52797;BME280;38666;43.348;12.584;2023-02-12T11:35:24;97161.38;;;11.66;29.08
52797;BME280;38666;43.348;12.584;2023-02-12T11:37:56;97158.97;;;11.61;29.87
52797;BME280;38666;43.348;12.584;2023-02-12T11:40:31;97156.31;;;11.68;28.51
52797;BME280;38666;43.348;12.584;2023-02-12T11:43:04;97144.91;;;11.94;28.53
52797;BME280;38666;43.348;12.584;2023-02-12T11:45:36;97140.41;;;12.09;28.61
52797;BME280;38666;43.348;12.584;2023-02-12T11:48:21;97139.38;;;11.90;27.72
52797;BME280;38666;43.348;12.584;2023-02-12T11:50:48;97138.00;;;12.03;27.12
52797;BME280;38666;43.348;12.584;2023-02-12T11:53:24;97134.72;;;12.25;24.75
52797;BME280;38666;43.348;12.584;2023-02-12T11:55:58;97125.84;;;12.35;23.29
52797;BME280;38666;43.348;12.584;2023-02-12T11:58:25;97123.50;;;12.37;22.64
52797;BME280;38666;43.348;12.584;2023-02-12T12:01:15;97119.25;;;12.44;20.18
52797;BME280;38666;43.348;12.584;2023-02-12T12:12:18;97112.97;;;12.05;19.28
52797;BME280;38666;43.348;12.584;2023-02-12T12:14:59;97120.13;;;12.13;19.45
52797;BME280;38666;43.348;12.584;2023-02-12T12:21:42;97107.03;;;11.65;18.57
52797;BME280;38666;43.348;12.584;2023-02-12T12:23:51;97107.72;;;12.27;19.89
52797;BME280;38666;43.348;12.584;2023-02-12T12:26:22;97108.59;;;12.35;20.30
52797;BME280;38666;43.348;12.584;2023-02-12T12:31:53;97100.38;;;12.76;21.98
52797;BME280;38666;43.348;12.584;2023-02-12T12:34:24;97110.19;;;12.39;22.67
52797;BME280;38666;43.348;12.584;2023-02-12T13:13:34;97088.38;;;15.75;14.88
52797;BME280;38666;43.348;12.584;2023-02-12T13:18:31;97099.59;;;14.91;15.96
52797;BME280;38666;43.348;12.584;2023-02-12T13:23:36;97100.75;;;14.72;16.00
52797;BME280;38666;43.348;12.584;2023-02-12T13:28:49;97098.81;;;14.94;15.79
52797;BME280;38666;43.348;12.584;2023-02-12T13:31:20;97080.72;;;15.19;15.74
52797;BME280;38666;43.348;12.584;2023-02-12T13:33:53;97083.06;;;15.13;15.77
52797;BME280;38666;43.348;12.584;2023-02-12T13:36:19;97081.44;;;15.34;15.66
52797;BME280;38666;43.348;12.584;2023-02-12T13:38:51;97078.66;;;15.45;15.31
52797;BME280;38666;43.348;12.584;2023-02-12T13:41:19;97074.22;;;15.76;15.52
52797;BME280;38666;43.348;12.584;2023-02-12T13:44:15;97077.81;;;17.33;14.52
52797;BME280;38666;43.348;12.584;2023-02-12T13:57:44;97084.75;;;20.53;13.26
52797;BME280;38666;43.348;12.584;2023-02-12T14:03:12;97085.06;;;23.35;11.15
52797;BME280;38666;43.348;12.584;2023-02-12T14:05:39;97091.78;;;26.43;10.25
52797;BME280;38666;43.348;12.584;2023-02-12T14:08:05;97093.22;;;25.86;9.78
52797;BME280;38666;43.348;12.584;2023-02-12T14:10:41;97093.00;;;23.01;11.21
52797;BME280;38666;43.348;12.584;2023-02-12T14:13:26;97094.44;;;21.28;12.26
52797;BME280;38666;43.348;12.584;2023-02-12T14:16:18;97090.78;;;20.15;12.98
52797;BME280;38666;43.348;12.584;2023-02-12T14:18:44;97089.91;;;20.18;12.92
52797;BME280;38666;43.348;12.584;2023-02-12T14:23:42;97078.63;;;23.60;10.37
52797;BME280;38666;43.348;12.584;2023-02-12T14:26:16;97075.47;;;24.85;9.87
52797;BME280;38666;43.348;12.584;2023-02-12T14:29:00;97075.19;;;25.87;9.99
52797;BME280;38666;43.348;12.584;2023-02-12T14:39:03;97070.06;;;27.36;9.08
52797;BME280;38666;43.348;12.584;2023-02-12T14:41:39;97087.66;;;26.63;8.77
52797;BME280;38666;43.348;12.584;2023-02-12T14:46:50;97078.50;;;27.11;8.47
52797;BME280;38666;43.348;12.584;2023-02-12T14:49:46;97081.72;;;25.65;9.96
52797;BME280;38666;43.348;12.584;2023-02-12T14:54:56;97083.78;;;24.57;9.80
52797;BME280;38666;43.348;12.584;2023-02-12T14:57:35;97080.28;;;23.35;10.50
52797;BME280;38666;43.348;12.584;2023-02-12T15:00:22;97102.13;;;22.10;11.64
52797;BME280;38666;43.348;12.584;2023-02-12T15:02:54;97105.94;;;22.81;11.64
52797;BME280;38666;43.348;12.584;2023-02-12T15:08:09;97094.59;;;22.23;12.05
52797;BME280;38666;43.348;12.584;2023-02-12T15:10:58;97097.13;;;22.05;12.35
52797;BME280;38666;43.348;12.584;2023-02-12T15:13:32;97104.50;;;22.11;12.35
52797;BME280;38666;43.348;12.584;2023-02-12T15:23:47;97129.63;;;23.48;12.05
52797;BME280;38666;43.348;12.584;2023-02-12T15:26:22;97115.53;;;22.41;12.00
52797;BME280;38666;43.348;12.584;2023-02-12T15:28:50;97116.38;;;21.69;12.77
52797;BME280;38666;43.348;12.584;2023-02-12T15:31:19;97121.38;;;20.98;13.82
52797;BME280;38666;43.348;12.584;2023-02-12T15:33:48;97129.41;;;22.28;12.21
52797;BME280;38666;43.348;12.584;2023-02-12T15:36:19;97142.78;;;22.46;12.13
52797;BME280;38666;43.348;12.584;2023-02-12T15:38:52;97132.66;;;21.24;13.09
52797;BME280;38666;43.348;12.584;2023-02-12T15:41:38;97146.69;;;21.34;13.12
52797;BME280;38666;43.348;12.584;2023-02-12T15:44:28;97140.41;;;22.06;13.00
52797;BME280;38666;43.348;12.584;2023-02-12T15:47:14;97147.06;;;22.64;12.85
52797;BME280;38666;43.348;12.584;2023-02-12T15:49:48;97141.41;;;22.12;13.03
52797;BME280;38666;43.348;12.584;2023-02-12T15:52:23;97136.19;;;22.14;13.03
52797;BME280;38666;43.348;12.584;2023-02-12T15:54:57;97145.72;;;22.00;13.16
52797;BME280;38666;43.348;12.584;2023-02-12T15:57:23;97138.34;;;20.50;14.42
52797;BME280;38666;43.348;12.584;2023-02-12T15:59:54;97152.13;;;18.28;16.02
52797;BME280;38666;43.348;12.584;2023-02-12T16:02:25;97146.53;;;16.70;17.70
52797;BME280;38666;43.348;12.584;2023-02-12T16:04:53;97168.28;;;15.57;18.70
52797;BME280;38666;43.348;12.584;2023-02-12T16:07:20;97164.00;;;14.75;19.89
52797;BME280;38666;43.348;12.584;2023-02-12T16:09:47;97162.94;;;13.76;20.84
52797;BME280;38666;43.348;12.584;2023-02-12T16:12:16;97168.91;;;13.33;21.34
52797;BME280;38666;43.348;12.584;2023-02-12T16:14:47;97165.47;;;12.91;22.11
52797;BME280;38666;43.348;12.584;2023-02-12T16:17:31;97172.63;;;12.19;22.86
52797;BME280;38666;43.348;12.584;2023-02-12T16:22:41;97173.63;;;11.76;23.36
52797;BME280;38666;43.348;12.584;2023-02-12T16:25:26;97176.84;;;11.82;23.55
52797;BME280;38666;43.348;12.584;2023-02-12T16:27:57;97177.50;;;11.44;24.07
52797;BME280;38666;43.348;12.584;2023-02-12T16:30:37;97174.63;;;11.34;24.44
52797;BME280;38666;43.348;12.584;2023-02-12T16:33:03;97174.75;;;11.17;24.73
52797;BME280;38666;43.348;12.584;2023-02-12T16:35:33;97179.75;;;10.88;24.64
52797;BME280;38666;43.348;12.584;2023-02-12T16:43:42;97192.91;;;10.79;25.15
52797;BME280;38666;43.348;12.584;2023-02-12T16:46:08;97194.03;;;10.78;25.73
52797;BME280;38666;43.348;12.584;2023-02-12T16:48:46;97206.16;;;10.57;26.31
52797;BME280;38666;43.348;12.584;2023-02-12T16:53:54;97217.34;;;9.92;28.15
52797;BME280;38666;43.348;12.584;2023-02-12T16:56:23;97214.69;;;9.76;28.18
52797;BME280;38666;43.348;12.584;2023-02-12T16:58:51;97227.66;;;9.63;28.70
52797;BME280;38666;43.348;12.584;2023-02-12T17:01:31;97223.69;;;9.60;29.12
52797;BME280;38666;43.348;12.584;2023-02-12T17:03:59;97228.16;;;9.33;29.27
52797;BME280;38666;43.348;12.584;2023-02-12T17:06:29;97233.16;;;9.31;28.71
52797;BME280;38666;43.348;12.584;2023-02-12T17:08:55;97232.19;;;9.23;28.96
52797;BME280;38666;43.348;12.584;2023-02-12T17:11:21;97240.81;;;9.09;29.82
52797;BME280;38666;43.348;12.584;2023-02-12T17:13:49;97232.44;;;9.01;30.45
52797;BME280;38666;43.348;12.584;2023-02-12T17:16:16;97235.34;;;8.93;30.63
52797;BME280;38666;43.348;12.584;2023-02-12T17:18:42;97241.84;;;8.88;30.64
52797;BME280;38666;43.348;12.584;2023-02-12T17:21:24;97247.66;;;8.86;31.07
52797;BME280;38666;43.348;12.584;2023-02-12T17:23:51;97256.88;;;8.82;30.55
52797;BME280;38666;43.348;12.584;2023-02-12T17:26:19;97254.31;;;8.73;30.98
52797;BME280;38666;43.348;12.584;2023-02-12T17:28:44;97251.63;;;8.60;32.09
52797;BME280;38666;43.348;12.584;2023-02-12T17:31:10;97245.00;;;8.45;31.87
52797;BME280;38666;43.348;12.584;2023-02-12T17:33:36;97250.03;;;8.30;32.20
52797;BME280;38666;43.348;12.584;2023-02-12T17:36:02;97253.50;;;8.15;32.17
52797;BME280;38666;43.348;12.584;2023-02-12T17:38:28;97257.50;;;7.92;32.43
52797;BME280;38666;43.348;12.584;2023-02-12T17:40:53;97257.75;;;7.87;32.32
52797;BME280;38666;43.348;12.584;2023-02-12T17:43:19;97253.81;;;7.72;32.89
52797;BME280;38666;43.348;12.584;2023-02-12T17:45:45;97252.13;;;7.67;33.57
52797;BME280;38666;43.348;12.584;2023-02-12T17:48:11;97246.13;;;7.62;33.46
52797;BME280;38666;43.348;12.584;2023-02-12T17:50:38;97257.34;;;7.60;33.32
52797;BME280;38666;43.348;12.584;2023-02-12T17:53:04;97262.09;;;7.63;33.94
52797;BME280;38666;43.348;12.584;2023-02-12T17:55:29;97263.13;;;7.58;34.02
52797;BME280;38666;43.348;12.584;2023-02-12T17:57:55;97267.88;;;7.49;34.46
52797;BME280;38666;43.348;12.584;2023-02-12T18:00:21;97266.97;;;7.45;34.93
52797;BME280;38666;43.348;12.584;2023-02-12T18:02:47;97262.69;;;7.31;35.22
52797;BME280;38666;43.348;12.584;2023-02-12T18:05:13;97258.56;;;7.25;34.56
52797;BME280;38666;43.348;12.584;2023-02-12T18:07:38;97261.53;;;7.20;35.17
52797;BME280;38666;43.348;12.584;2023-02-12T18:10:05;97258.91;;;7.11;36.02
52797;BME280;38666;43.348;12.584;2023-02-12T18:12:32;97275.31;;;7.02;36.30
52797;BME280;38666;43.348;12.584;2023-02-12T18:14:58;97279.59;;;6.91;36.61
52797;BME280;38666;43.348;12.584;2023-02-12T18:17:24;97271.75;;;6.77;38.01
52797;BME280;38666;43.348;12.584;2023-02-12T18:19:50;97270.50;;;6.74;37.80
52797;BME280;38666;43.348;12.584;2023-02-12T18:22:16;97269.13;;;6.68;38.15
52797;BME280;38666;43.348;12.584;2023-02-12T18:24:41;97274.88;;;6.66;38.24
52797;BME280;38666;43.348;12.584;2023-02-12T18:27:08;97282.13;;;6.62;38.50
52797;BME280;38666;43.348;12.584;2023-02-12T18:29:33;97278.66;;;6.74;37.98
52797;BME280;38666;43.348;12.584;2023-02-12T18:31:59;97280.72;;;6.90;37.79
52797;BME280;38666;43.348;12.584;2023-02-12T18:34:24;97290.22;;;6.83;38.21
52797;BME280;38666;43.348;12.584;2023-02-12T18:36:51;97297.19;;;6.72;39.01
52797;BME280;38666;43.348;12.584;2023-02-12T18:39:16;97294.94;;;6.74;38.73
52797;BME280;38666;43.348;12.584;2023-02-12T18:41:42;97289.13;;;6.63;39.14
52797;BME280;38666;43.348;12.584;2023-02-12T18:44:07;97281.44;;;6.65;39.33
52797;BME280;38666;43.348;12.584;2023-02-12T18:46:33;97279.94;;;6.55;39.61
52797;BME280;38666;43.348;12.584;2023-02-12T18:48:59;97283.19;;;6.48;39.50
52797;BME280;38666;43.348;12.584;2023-02-12T18:51:27;97297.75;;;6.44;40.27
